Time;durP1;ratioP1;P1;durP2;ratioP2;P2;SDS_P1;SDS_P2;PMS_P1;PMS_P2;Temp;Humidity;BMP_temperature;BMP_pressure;BME280_temperature;BME280_humidity;BME280_pressure;Samples;Min_cycle;Max_cycle;Signal;HPM_P1;HPM_P2
2024/01/25 00:00:00;;;;;;;9.33;2.70;;;8.50;99.90;;;;;;5009638;28;20333;-71
2024/01/25 00:02:27;;;;;;;14.60;3.73;;;8.50;99.90;;;;;;5007662;28;20206;-72
2024/01/25 00:04:56;;;;;;;16.70;3.90;;;8.50;99.90;;;;;;5007459;28;20292;-72
2024/01/25 00:07:23;;;;;;;11.10;3.60;;;8.50;99.90;;;;;;5006979;28;20213;-72
2024/01/25 00:09:49;;;;;;;12.93;3.53;;;8.50;99.90;;;;;;5010254;28;20664;-73
2024/01/25 00:12:16;;;;;;;17.07;3.97;;;8.50;99.90;;;;;;5006846;28;20229;-72
2024/01/25 00:14:43;;;;;;;15.70;4.53;;;8.50;99.90;;;;;;5007319;28;20297;-72
2024/01/25 00:17:10;;;;;;;12.73;3.50;;;8.40;99.90;;;;;;5007356;28;20205;-72
2024/01/25 00:19:37;;;;;;;12.40;3.60;;;8.50;99.90;;;;;;5007808;28;20755;-71
2024/01/25 00:22:05;;;;;;;11.27;3.20;;;8.50;99.90;;;;;;5006995;28;20629;-71
2024/01/25 00:24:33;;;;;;;16.27;3.37;;;8.40;99.90;;;;;;5007094;28;20289;-71
2024/01/25 00:27:00;;;;;;;10.57;3.13;;;8.50;99.90;;;;;;5006591;28;20400;-72
2024/01/25 00:29:27;;;;;;;15.60;3.63;;;8.40;99.90;;;;;;5006707;28;20260;-72
2024/01/25 00:31:54;;;;;;;15.00;3.43;;;8.50;99.90;;;;;;5006532;28;20296;-71
2024/01/25 00:34:21;;;;;;;13.73;3.53;;;8.50;99.90;;;;;;5006548;28;20292;-71
2024/01/25 00:36:49;;;;;;;9.90;3.07;;;8.50;99.90;;;;;;5006661;28;20693;-71
2024/01/25 00:39:17;;;;;;;12.10;3.23;;;8.50;99.90;;;;;;5007006;28;20284;-71
2024/01/25 00:41:46;;;;;;;13.17;3.00;;;8.50;99.90;;;;;;5006652;28;20320;-71
2024/01/25 00:44:13;;;;;;;10.63;3.57;;;8.50;99.90;;;;;;5007318;28;20834;-71
2024/01/25 00:46:41;;;;;;;9.07;2.97;;;8.50;99.90;;;;;;5006834;28;20296;-71
2024/01/25 00:49:08;;;;;;;12.90;3.20;;;8.50;99.90;;;;;;5007114;28;20288;-71
2024/01/25 00:51:37;;;;;;;9.77;3.10;;;8.60;99.90;;;;;;5006392;28;20209;-71
2024/01/25 00:54:04;;;;;;;10.77;3.30;;;8.60;99.90;;;;;;5006966;28;20252;-71
2024/01/25 00:56:33;;;;;;;10.03;3.00;;;8.60;99.90;;;;;;5006941;28;20290;-71
2024/01/25 00:59:00;;;;;;;9.97;3.07;;;8.60;99.90;;;;;;5006986;28;20292;-71
2024/01/25 01:01:28;;;;;;;9.80;2.80;;;8.60;99.90;;;;;;5006819;28;20233;-71
2024/01/25 01:03:59;;;;;;;12.40;3.40;;;8.50;99.90;;;;;;5015755;28;20243;-71
2024/01/25 01:06:27;;;;;;;12.17;3.13;;;8.50;99.90;;;;;;5014909;28;20304;-71
2024/01/25 01:08:54;;;;;;;8.70;2.93;;;8.60;99.90;;;;;;5006525;28;20735;-71
2024/01/25 01:11:21;;;;;;;8.77;2.67;;;8.60;99.90;;;;;;5006354;28;20252;-71
2024/01/25 01:13:49;;;;;;;11.93;3.20;;;8.60;99.90;;;;;;5006854;28;20216;-71
2024/01/25 01:16:16;;;;;;;10.13;2.50;;;8.60;99.90;;;;;;5006666;28;20300;-72
2024/01/25 01:18:43;;;;;;;11.27;2.93;;;8.60;99.90;;;;;;5022499;28;20205;-72
2024/01/25 01:21:10;;;;;;;13.37;3.07;;;8.60;99.90;;;;;;5004121;28;20235;-72
2024/01/25 01:23:36;;;;;;;11.43;3.27;;;8.60;99.90;;;;;;5007349;28;20308;-72
2024/01/25 01:26:05;;;;;;;9.37;3.20;;;8.60;99.90;;;;;;5010771;28;20209;-72
2024/01/25 01:28:32;;;;;;;11.37;3.27;;;8.50;99.90;;;;;;5010328;28;20296;-72
2024/01/25 01:31:00;;;;;;;12.07;3.20;;;8.60;99.90;;;;;;5022439;28;20291;-72
2024/01/25 01:33:27;;;;;;;12.57;2.57;;;8.60;99.90;;;;;;5010206;28;20301;-72
2024/01/25 01:35:54;;;;;;;12.80;3.33;;;8.60;99.90;;;;;;5010368;28;20300;-72
2024/01/25 01:38:21;;;;;;;14.63;2.87;;;8.60;99.90;;;;;;5010029;28;20241;-72
2024/01/25 01:40:48;;;;;;;10.37;2.70;;;8.50;99.90;;;;;;5010341;28;20329;-72
2024/01/25 01:43:19;;;;;;;11.73;2.83;;;8.50;99.90;;;;;;5010278;28;20292;-72
2024/01/25 01:45:46;;;;;;;9.83;2.80;;;8.50;99.90;;;;;;5010268;28;20201;-72
2024/01/25 01:48:14;;;;;;;10.33;3.60;;;8.50;99.90;;;;;;5009922;28;20301;-72
2024/01/25 01:50:41;;;;;;;10.47;3.00;;;8.50;99.90;;;;;;5010270;28;20312;-72
2024/01/25 01:53:08;;;;;;;8.23;3.23;;;8.50;99.90;;;;;;5009696;28;20364;-72
2024/01/25 01:55:36;;;;;;;14.13;3.73;;;8.50;99.90;;;;;;5009901;28;20209;-72
2024/01/25 01:58:03;;;;;;;12.10;2.87;;;8.50;99.90;;;;;;5009851;28;20212;-72
2024/01/25 02:00:31;;;;;;;13.33;3.27;;;8.50;99.90;;;;;;5009908;28;20260;-72
2024/01/25 02:02:58;;;;;;;10.20;2.90;;;8.50;99.90;;;;;;5009481;28;20210;-72
2024/01/25 02:05:27;;;;;;;13.37;3.57;;;8.40;99.90;;;;;;5011772;28;20632;-72
2024/01/25 02:07:56;;;;;;;9.80;2.67;;;8.40;99.90;;;;;;5009715;28;20260;-72
2024/01/25 02:10:23;;;;;;;11.40;3.13;;;8.40;99.90;;;;;;5009804;28;20209;-72
2024/01/25 02:12:50;;;;;;;11.83;2.93;;;8.40;99.90;;;;;;5010101;28;20288;-72
2024/01/25 02:15:17;;;;;;;14.93;3.50;;;8.40;99.90;;;;;;5009640;28;20320;-72
2024/01/25 02:17:44;;;;;;;12.47;3.17;;;8.40;99.90;;;;;;5010044;28;20698;-72
2024/01/25 02:20:11;;;;;;;10.20;3.30;;;8.40;99.90;;;;;;5009290;28;20220;-71
2024/01/25 02:22:39;;;;;;;12.80;3.20;;;8.40;99.90;;;;;;5009335;28;20276;-71
2024/01/25 02:25:07;;;;;;;9.83;3.17;;;8.40;99.90;;;;;;5009558;28;20297;-70
2024/01/25 02:27:38;;;;;;;17.30;3.30;;;8.40;99.90;;;;;;5009478;28;20314;-70
2024/01/25 02:30:07;;;;;;;10.97;2.70;;;8.30;99.90;;;;;;5020543;28;20726;-71
2024/01/25 02:32:34;;;;;;;10.50;3.13;;;8.30;99.90;;;;;;5029041;28;20212;-72
2024/01/25 02:35:01;;;;;;;13.63;3.10;;;8.30;99.90;;;;;;5016795;28;20221;-72
2024/01/25 02:37:28;;;;;;;12.60;3.53;;;8.30;99.90;;;;;;5008893;28;20303;-71
2024/01/25 02:39:56;;;;;;;13.43;3.10;;;8.30;99.90;;;;;;5009130;28;20316;-72
2024/01/25 02:42:23;;;;;;;11.93;3.27;;;8.30;99.90;;;;;;5009048;28;20582;-72
2024/01/25 02:44:50;;;;;;;15.60;4.00;;;8.20;99.90;;;;;;5009285;28;20292;-72
2024/01/25 02:47:17;;;;;;;12.30;3.60;;;8.20;99.90;;;;;;5009133;28;20303;-73
2024/01/25 02:49:44;;;;;;;12.23;3.27;;;8.30;99.90;;;;;;5009265;28;20241;-72
2024/01/25 02:52:11;;;;;;;8.77;2.47;;;8.20;99.90;;;;;;5008417;28;20341;-73
2024/01/25 02:54:37;;;;;;;12.30;3.00;;;8.20;99.90;;;;;;5019718;28;20209;-72
2024/01/25 02:57:06;;;;;;;10.93;2.70;;;8.20;99.90;;;;;;5028715;28;20208;-73
2024/01/25 02:59:33;;;;;;;14.47;3.67;;;8.30;99.90;;;;;;5015864;28;20300;-73
2024/01/25 03:01:59;;;;;;;13.67;3.07;;;8.20;99.90;;;;;;5028324;28;20323;-73
2024/01/25 03:04:26;;;;;;;15.13;3.47;;;8.20;99.90;;;;;;5028382;28;21061;-73
2024/01/25 03:06:53;;;;;;;13.53;3.23;;;8.20;99.90;;;;;;5027525;28;20223;-73
2024/01/25 03:09:21;;;;;;;11.17;2.77;;;8.20;99.90;;;;;;5026875;28;20207;-73
2024/01/25 03:11:48;;;;;;;13.73;3.40;;;8.20;99.90;;;;;;5028175;28;20201;-72
2024/01/25 03:14:16;;;;;;;14.03;3.60;;;8.20;99.90;;;;;;5015418;28;20210;-71
2024/01/25 03:16:43;;;;;;;10.00;2.97;;;8.20;99.90;;;;;;5023766;28;20291;-72
2024/01/25 03:19:12;;;;;;;12.40;3.37;;;8.20;99.90;;;;;;5021925;28;20203;-72
2024/01/25 03:21:38;;;;;;;14.10;3.70;;;8.20;99.90;;;;;;5017964;28;20324;-72
2024/01/25 03:24:06;;;;;;;11.23;3.23;;;8.20;99.90;;;;;;5015730;28;20207;-72
2024/01/25 03:26:33;;;;;;;13.23;3.47;;;8.20;99.90;;;;;;5018984;28;20750;-72
2024/01/25 03:29:00;;;;;;;12.03;3.20;;;8.20;99.90;;;;;;5013702;28;20213;-72
2024/01/25 03:31:29;;;;;;;13.80;3.53;;;8.20;99.90;;;;;;5014520;28;20248;-72
2024/01/25 03:33:55;;;;;;;14.40;3.40;;;8.20;99.90;;;;;;5013774;28;20208;-72
2024/01/25 03:36:22;;;;;;;8.87;2.67;;;8.20;99.90;;;;;;5012345;28;20676;-72
2024/01/25 03:38:49;;;;;;;9.47;2.83;;;8.20;99.90;;;;;;5006249;28;20206;-72
2024/01/25 03:41:16;;;;;;;11.90;3.57;;;8.20;99.90;;;;;;5012127;28;20229;-72
2024/01/25 03:43:44;;;;;;;9.50;3.17;;;8.20;99.90;;;;;;5015484;28;20207;-73
2024/01/25 03:46:12;;;;;;;14.03;3.83;;;8.20;99.90;;;;;;5018743;28;20201;-72
2024/01/25 03:48:40;;;;;;;13.93;3.17;;;8.10;99.90;;;;;;5019583;28;20303;-72
2024/01/25 03:51:07;;;;;;;11.10;3.23;;;8.10;99.90;;;;;;5008974;28;20218;-72
2024/01/25 03:53:34;;;;;;;13.70;3.40;;;8.10;99.90;;;;;;5006080;28;20324;-72
2024/01/25 03:56:03;;;;;;;14.33;3.53;;;8.10;99.90;;;;;;5011723;28;20675;-72
2024/01/25 03:58:30;;;;;;;11.67;3.50;;;8.10;99.90;;;;;;5006968;28;20201;-72
2024/01/25 04:00:58;;;;;;;14.87;3.70;;;8.10;99.90;;;;;;5005771;28;20818;-72
2024/01/25 04:03:26;;;;;;;13.43;3.60;;;8.00;99.90;;;;;;5005228;28;20639;-72
2024/01/25 04:05:55;;;;;;;17.47;3.30;;;8.10;99.90;;;;;;5006823;28;20214;-72
2024/01/25 04:08:21;;;;;;;15.80;3.47;;;8.10;99.90;;;;;;5006159;28;20756;-72
2024/01/25 04:10:48;;;;;;;11.97;2.77;;;8.00;99.90;;;;;;5006734;28;20767;-72
2024/01/25 04:13:15;;;;;;;12.83;3.17;;;8.00;99.90;;;;;;5006521;28;21033;-72
2024/01/25 04:15:42;;;;;;;11.03;3.10;;;8.00;99.90;;;;;;5006907;28;20638;-73
2024/01/25 04:18:09;;;;;;;15.67;4.03;;;8.00;99.90;;;;;;5006991;28;20216;-72
2024/01/25 04:20:36;;;;;;;10.63;3.47;;;8.00;99.90;;;;;;5006356;28;20580;-72
2024/01/25 04:23:05;;;;;;;11.53;3.20;;;8.00;99.90;;;;;;5006414;28;20239;-72
2024/01/25 04:25:31;;;;;;;11.77;3.70;;;8.00;99.90;;;;;;5006412;28;20229;-72
2024/01/25 04:27:58;;;;;;;10.07;2.80;;;8.00;99.90;;;;;;5006587;28;20260;-72
2024/01/25 04:30:25;;;;;;;11.50;3.57;;;8.00;99.90;;;;;;5006480;28;20237;-72
2024/01/25 04:32:52;;;;;;;12.60;3.30;;;8.00;99.90;;;;;;5006349;28;20589;-72
2024/01/25 04:35:19;;;;;;;15.00;3.47;;;8.00;99.90;;;;;;5006430;28;20296;-72
2024/01/25 04:37:46;;;;;;;17.10;3.83;;;8.00;99.90;;;;;;5005910;28;20679;-72
2024/01/25 04:40:14;;;;;;;16.37;3.40;;;8.00;99.90;;;;;;5005806;28;20312;-72
2024/01/25 04:42:41;;;;;;;12.37;3.47;;;7.90;99.90;;;;;;5006034;28;20783;-72
2024/01/25 04:45:08;;;;;;;10.97;3.63;;;8.00;99.90;;;;;;5006422;28;20308;-72
2024/01/25 04:47:35;;;;;;;16.57;3.67;;;8.00;99.90;;;;;;5006224;28;20312;-72
2024/01/25 04:50:02;;;;;;;14.87;3.50;;;8.00;99.90;;;;;;5006090;28;20223;-72
2024/01/25 04:52:29;;;;;;;13.00;3.77;;;8.00;99.90;;;;;;4950010;28;1166666;-72
2024/01/25 04:54:56;;;;;;;18.77;3.47;;;8.00;99.90;;;;;;4987169;28;20270;-72
2024/01/25 04:57:24;;;;;;;8.17;3.03;;;8.00;99.90;;;;;;4986481;28;20305;-72
2024/01/25 04:59:51;;;;;;;12.23;3.73;;;8.00;99.90;;;;;;4986989;28;20305;-72
2024/01/25 05:02:18;;;;;;;11.87;3.30;;;8.00;99.90;;;;;;4987267;28;20277;-72
2024/01/25 05:04:45;;;;;;;12.17;3.23;;;7.90;99.90;;;;;;4987550;28;20292;-72
2024/01/25 05:07:12;;;;;;;15.87;3.70;;;7.90;99.90;;;;;;5000155;28;20625;-72
2024/01/25 05:09:39;;;;;;;12.50;3.40;;;7.90;99.90;;;;;;5006816;28;20305;-72
2024/01/25 05:12:07;;;;;;;16.30;3.93;;;7.90;99.90;;;;;;5006633;28;20216;-72
2024/01/25 05:14:35;;;;;;;12.30;3.13;;;7.90;99.90;;;;;;5007028;28;20304;-72
2024/01/25 05:17:02;;;;;;;12.17;3.33;;;7.90;99.90;;;;;;5007119;28;20237;-72
2024/01/25 05:19:29;;;;;;;12.37;3.60;;;7.90;99.90;;;;;;5006630;28;20292;-72
2024/01/25 05:21:56;;;;;;;11.23;3.40;;;7.90;99.90;;;;;;5006693;28;20284;-72
2024/01/25 05:24:23;;;;;;;15.63;3.20;;;7.90;99.90;;;;;;5006673;28;20296;-72
2024/01/25 05:26:50;;;;;;;11.97;2.90;;;7.90;99.90;;;;;;5007078;28;20214;-72
2024/01/25 05:29:17;;;;;;;11.50;3.27;;;8.00;99.90;;;;;;5006494;28;20682;-72
2024/01/25 05:31:45;;;;;;;12.83;3.23;;;8.00;99.90;;;;;;5006504;28;20576;-72
2024/01/25 05:34:12;;;;;;;12.03;3.10;;;8.00;99.90;;;;;;5006897;28;20616;-72
2024/01/25 05:36:39;;;;;;;14.93;4.07;;;8.00;99.90;;;;;;5006616;28;20324;-72
2024/01/25 05:39:07;;;;;;;11.03;3.20;;;8.00;99.90;;;;;;5006291;28;20324;-72
2024/01/25 05:41:34;;;;;;;14.43;3.23;;;7.90;99.90;;;;;;5006535;28;20263;-72
2024/01/25 05:44:02;;;;;;;10.97;3.13;;;7.90;99.90;;;;;;5006902;28;20734;-72
2024/01/25 05:46:28;;;;;;;10.87;3.17;;;7.90;99.90;;;;;;5006131;28;20708;-72
2024/01/25 05:48:57;;;;;;;11.13;3.53;;;7.90;99.90;;;;;;5006459;28;20300;-73
2024/01/25 05:51:24;;;;;;;14.80;3.40;;;7.90;99.90;;;;;;5005184;28;20629;-72
2024/01/25 05:53:51;;;;;;;11.07;3.10;;;7.90;99.90;;;;;;5003592;28;20237;-72
2024/01/25 05:56:18;;;;;;;13.17;3.17;;;7.90;99.90;;;;;;5006224;28;20305;-72
2024/01/25 05:58:44;;;;;;;10.83;3.27;;;7.90;99.90;;;;;;5006162;28;20691;-72
2024/01/25 06:01:11;;;;;;;14.43;3.20;;;7.90;99.90;;;;;;5006281;28;20249;-72
2024/01/25 06:03:38;;;;;;;14.83;3.07;;;7.90;99.90;;;;;;5006032;28;20321;-72
2024/01/25 06:06:07;;;;;;;14.00;3.37;;;7.90;99.90;;;;;;5006349;28;20250;-72
2024/01/25 06:08:35;;;;;;;9.70;2.67;;;7.90;99.90;;;;;;5006095;28;20212;-72
2024/01/25 06:11:01;;;;;;;12.80;3.47;;;7.90;99.90;;;;;;5009349;28;20225;-72
2024/01/25 06:13:28;;;;;;;16.47;3.57;;;7.90;99.90;;;;;;5009466;28;20576;-72
2024/01/25 06:15:55;;;;;;;11.50;3.20;;;7.90;99.90;;;;;;5009650;28;20220;-72
2024/01/25 06:18:22;;;;;;;13.33;3.27;;;7.90;99.90;;;;;;5009567;28;20609;-72
2024/01/25 06:20:50;;;;;;;9.67;3.20;;;7.90;99.90;;;;;;5009786;28;20336;-72
2024/01/25 06:23:18;;;;;;;14.80;3.60;;;7.90;99.90;;;;;;5009245;28;20233;-72
2024/01/25 06:25:45;;;;;;;9.33;2.90;;;7.90;99.90;;;;;;5009435;28;20735;-72
2024/01/25 06:28:12;;;;;;;11.60;2.80;;;7.90;99.90;;;;;;5009325;28;20300;-73
2024/01/25 06:30:39;;;;;;;14.17;3.27;;;7.90;99.90;;;;;;5009347;28;20308;-72
2024/01/25 06:33:06;;;;;;;10.67;3.00;;;7.90;99.90;;;;;;5009437;28;20579;-72
2024/01/25 06:35:33;;;;;;;12.03;3.00;;;7.90;99.90;;;;;;5009563;28;20300;-72
2024/01/25 06:38:00;;;;;;;10.57;3.30;;;7.90;99.90;;;;;;5009160;28;20650;-72
2024/01/25 06:40:29;;;;;;;13.70;3.30;;;7.90;99.90;;;;;;5008920;28;20714;-72
2024/01/25 06:42:55;;;;;;;10.63;3.13;;;7.90;99.90;;;;;;5009110;28;20276;-71
2024/01/25 06:45:22;;;;;;;9.10;2.67;;;7.80;99.90;;;;;;5009259;28;20205;-71
2024/01/25 06:47:49;;;;;;;8.87;2.50;;;7.90;99.90;;;;;;5009250;28;20245;-71
2024/01/25 06:50:16;;;;;;;11.77;2.67;;;7.90;99.90;;;;;;4999766;28;20224;-71
2024/01/25 06:52:43;;;;;;;9.40;2.40;;;7.90;99.90;;;;;;4989280;28;20246;-71
2024/01/25 06:55:10;;;;;;;11.53;3.20;;;7.90;99.90;;;;;;4989331;28;20210;-71
2024/01/25 06:57:39;;;;;;;15.47;3.13;;;7.90;99.90;;;;;;4989222;28;20241;-71
2024/01/25 07:00:08;;;;;;;12.00;3.27;;;7.90;99.90;;;;;;5004096;28;20253;-71
2024/01/25 07:02:34;;;;;;;12.03;3.23;;;7.90;99.90;;;;;;5008834;28;20225;-71
2024/01/25 07:05:02;;;;;;;7.57;2.50;;;7.90;99.90;;;;;;5009003;28;20232;-71
2024/01/25 07:07:29;;;;;;;11.07;3.13;;;7.90;99.90;;;;;;5008552;28;20236;-72
2024/01/25 07:09:56;;;;;;;9.67;2.73;;;7.90;99.90;;;;;;5008234;28;20248;-71
2024/01/25 07:12:23;;;;;;;11.73;2.90;;;7.90;99.90;;;;;;5008464;28;20220;-71
2024/01/25 07:14:51;;;;;;;10.17;2.80;;;7.90;99.90;;;;;;5008303;28;20213;-71
2024/01/25 07:17:18;;;;;;;10.63;3.20;;;7.90;99.90;;;;;;5008544;28;20667;-71
2024/01/25 07:19:45;;;;;;;9.07;2.53;;;7.90;99.90;;;;;;5008335;28;20300;-71
2024/01/25 07:22:14;;;;;;;14.40;3.43;;;7.90;99.90;;;;;;5006900;28;20316;-71
2024/01/25 07:24:41;;;;;;;11.97;3.00;;;7.90;99.90;;;;;;5008461;28;20213;-71
2024/01/25 07:27:09;;;;;;;17.13;2.90;;;7.90;99.90;;;;;;5008687;28;20638;-71
2024/01/25 07:29:36;;;;;;;12.20;2.97;;;7.90;99.90;;;;;;5008525;28;20225;-71
2024/01/25 07:32:05;;;;;;;11.93;2.67;;;7.90;99.90;;;;;;5008539;28;20297;-71
2024/01/25 07:34:32;;;;;;;15.77;3.53;;;7.90;99.90;;;;;;5007975;28;20208;-71
2024/01/25 07:36:59;;;;;;;13.20;3.17;;;7.90;99.90;;;;;;5008117;28;20220;-71
2024/01/25 07:39:26;;;;;;;12.47;3.17;;;7.90;99.90;;;;;;5008029;28;20320;-72
2024/01/25 07:41:53;;;;;;;9.87;2.70;;;7.90;99.90;;;;;;5008260;28;20300;-70
2024/01/25 07:44:19;;;;;;;11.53;2.97;;;7.80;99.90;;;;;;5007714;28;20297;-71
2024/01/25 07:46:47;;;;;;;16.20;2.90;;;7.90;99.90;;;;;;5008215;28;20755;-71
2024/01/25 07:49:15;;;;;;;12.10;3.00;;;7.80;99.90;;;;;;5008120;28;20611;-71
2024/01/25 07:51:42;;;;;;;12.57;2.83;;;7.90;99.90;;;;;;5007180;28;20324;-71
2024/01/25 07:54:09;;;;;;;9.53;2.63;;;7.90;99.90;;;;;;5007640;28;20292;-71
2024/01/25 07:56:36;;;;;;;11.17;3.33;;;7.90;99.90;;;;;;5007532;28;20320;-71
2024/01/25 07:59:03;;;;;;;14.83;2.77;;;7.80;99.90;;;;;;5007779;28;20249;-71
2024/01/25 08:01:30;;;;;;;12.27;2.87;;;7.80;99.90;;;;;;5007606;28;20248;-71
2024/01/25 08:03:56;;;;;;;11.77;3.13;;;7.80;99.90;;;;;;5007973;28;20295;-71
2024/01/25 08:06:26;;;;;;;10.73;2.70;;;7.90;99.90;;;;;;5007681;28;20211;-71
2024/01/25 08:08:53;;;;;;;12.63;3.03;;;7.80;99.90;;;;;;5007892;28;20205;-71
2024/01/25 08:11:20;;;;;;;10.60;2.47;;;7.90;99.90;;;;;;5007399;28;20237;-71
2024/01/25 08:13:47;;;;;;;12.50;2.60;;;7.80;99.90;;;;;;5007863;28;20565;-71
2024/01/25 08:16:19;;;;;;;10.63;3.13;;;7.80;99.90;;;;;;5007505;28;20202;-72
2024/01/25 08:18:45;;;;;;;10.20;2.80;;;7.80;99.90;;;;;;5007480;28;20703;-71
2024/01/25 08:21:13;;;;;;;8.53;2.77;;;7.80;99.90;;;;;;5007663;28;20304;-71
2024/01/25 08:23:42;;;;;;;14.37;3.30;;;7.80;99.90;;;;;;5007321;28;20629;-71
2024/01/25 08:26:09;;;;;;;14.63;3.27;;;7.90;99.90;;;;;;5007783;28;20205;-71
2024/01/25 08:28:37;;;;;;;11.50;2.80;;;7.80;99.90;;;;;;5007345;28;20221;-71
2024/01/25 08:31:04;;;;;;;10.37;2.67;;;7.80;99.90;;;;;;5007745;28;20220;-71
2024/01/25 08:33:31;;;;;;;12.67;3.43;;;7.80;99.90;;;;;;5007492;28;20232;-71
2024/01/25 08:35:58;;;;;;;9.60;2.67;;;7.90;99.90;;;;;;5007380;28;20288;-71
2024/01/25 08:38:25;;;;;;;8.87;2.63;;;7.90;99.90;;;;;;5007233;28;20237;-71
2024/01/25 08:40:53;;;;;;;11.30;2.37;;;7.90;99.90;;;;;;5007325;28;20256;-71
2024/01/25 08:43:21;;;;;;;14.00;2.97;;;7.90;99.90;;;;;;5007058;28;20320;-71
2024/01/25 08:45:48;;;;;;;13.30;3.00;;;7.90;99.90;;;;;;5007053;28;20723;-71
2024/01/25 08:48:14;;;;;;;11.00;3.23;;;7.90;99.90;;;;;;5007057;28;20304;-71
2024/01/25 08:50:41;;;;;;;11.50;2.90;;;7.90;99.90;;;;;;5007174;28;20225;-72
2024/01/25 08:53:09;;;;;;;9.57;3.07;;;7.90;99.90;;;;;;5006249;28;20245;-71
2024/01/25 08:55:36;;;;;;;11.57;2.83;;;7.90;99.90;;;;;;5007058;28;20205;-71
2024/01/25 08:58:05;;;;;;;10.57;2.90;;;7.90;99.90;;;;;;5007054;28;20312;-71
2024/01/25 09:00:31;;;;;;;10.37;2.60;;;7.90;99.90;;;;;;5007152;28;20304;-71
2024/01/25 09:02:58;;;;;;;10.13;2.77;;;7.90;99.90;;;;;;5006944;28;20319;-72
2024/01/25 09:05:27;;;;;;;10.27;2.90;;;7.90;99.90;;;;;;5006638;28;20248;-71
2024/01/25 09:07:54;;;;;;;11.40;2.63;;;7.90;99.90;;;;;;5006852;28;20213;-72
2024/01/25 09:10:21;;;;;;;14.27;2.77;;;7.90;99.90;;;;;;5006785;28;20252;-71
2024/01/25 09:12:48;;;;;;;11.00;2.70;;;7.90;99.90;;;;;;5006954;28;20335;-71
2024/01/25 09:15:17;;;;;;;9.70;3.10;;;8.00;99.90;;;;;;5007169;28;20628;-71
2024/01/25 09:17:45;;;;;;;8.70;3.33;;;7.90;99.90;;;;;;5007157;28;20292;-71
2024/01/25 09:20:12;;;;;;;13.87;2.97;;;7.90;99.90;;;;;;5007178;28;20217;-71
2024/01/25 09:22:39;;;;;;;11.60;2.90;;;8.00;99.90;;;;;;5006626;28;20213;-72
2024/01/25 09:25:07;;;;;;;12.90;3.00;;;8.00;99.90;;;;;;5006675;28;20696;-71
2024/01/25 09:27:34;;;;;;;13.73;3.20;;;8.00;99.90;;;;;;5007128;28;20220;-71
2024/01/25 09:30:01;;;;;;;10.50;2.97;;;8.00;99.90;;;;;;5006957;28;20237;-71
2024/01/25 09:32:29;;;;;;;10.53;2.47;;;8.00;99.90;;;;;;5006940;28;20216;-70
2024/01/25 09:34:56;;;;;;;11.50;3.07;;;8.00;99.90;;;;;;5006880;28;20209;-71
2024/01/25 09:37:24;;;;;;;9.27;2.93;;;8.00;99.90;;;;;;5006621;28;20291;-71
2024/01/25 09:39:51;;;;;;;10.00;2.60;;;7.90;99.90;;;;;;5006386;28;20336;-71
2024/01/25 09:42:18;;;;;;;10.43;2.80;;;8.00;99.90;;;;;;5006676;28;20222;-71
2024/01/25 09:44:46;;;;;;;12.50;2.67;;;7.90;99.90;;;;;;5008218;28;20241;-71
2024/01/25 09:47:13;;;;;;;10.67;2.90;;;8.00;99.90;;;;;;5010283;28;20201;-71
2024/01/25 09:49:44;;;;;;;9.03;2.67;;;8.00;99.90;;;;;;5010202;28;21042;-71
2024/01/25 09:52:13;;;;;;;11.50;3.33;;;8.00;99.90;;;;;;5009877;28;20245;-71
2024/01/25 09:54:41;;;;;;;12.70;3.43;;;7.90;99.90;;;;;;5010217;28;20289;-71
2024/01/25 09:57:16;;;;;;;10.23;3.17;;;8.00;99.90;;;;;;5010369;28;20311;-71
2024/01/25 09:59:44;;;;;;;9.47;2.60;;;8.00;99.90;;;;;;5010056;28;20208;-71
2024/01/25 10:02:11;;;;;;;9.40;2.70;;;7.90;99.90;;;;;;5010425;28;20210;-70
2024/01/25 10:04:38;;;;;;;11.33;2.97;;;7.90;99.90;;;;;;5009746;28;20624;-71
2024/01/25 10:07:06;;;;;;;11.23;2.67;;;7.90;99.90;;;;;;5009684;28;20301;-71
2024/01/25 10:09:40;;;;;;;13.27;3.30;;;8.00;99.90;;;;;;5009835;28;20301;-71
2024/01/25 10:12:08;;;;;;;11.30;2.97;;;7.90;99.90;;;;;;5010113;28;20624;-71
2024/01/25 10:14:35;;;;;;;9.07;2.83;;;8.00;99.90;;;;;;5009681;28;20210;-71
2024/01/25 10:17:02;;;;;;;9.57;3.00;;;8.00;99.90;;;;;;5009496;28;20308;-71
2024/01/25 10:19:29;;;;;;;9.43;2.50;;;8.00;99.90;;;;;;5009537;28;20590;-70
2024/01/25 10:21:57;;;;;;;10.47;2.87;;;8.00;99.90;;;;;;5009692;28;20283;-71
2024/01/25 10:24:25;;;;;;;11.10;2.83;;;8.00;99.90;;;;;;5009449;28;20241;-71
2024/01/25 10:26:52;;;;;;;10.50;3.00;;;8.00;99.90;;;;;;5009509;28;20304;-71
2024/01/25 10:29:19;;;;;;;11.37;3.23;;;8.10;99.90;;;;;;5009399;28;20213;-71
2024/01/25 10:31:47;;;;;;;8.27;2.70;;;8.10;99.90;;;;;;5009609;28;20220;-71
2024/01/25 10:34:15;;;;;;;12.47;2.97;;;8.10;99.90;;;;;;5009253;28;20268;-71
2024/01/25 10:36:43;;;;;;;12.97;3.07;;;8.10;99.90;;;;;;5009111;28;20646;-71
2024/01/25 10:39:11;;;;;;;10.60;3.30;;;8.10;99.90;;;;;;5009091;28;20779;-71
2024/01/25 10:41:40;;;;;;;12.67;3.57;;;8.10;99.90;;;;;;5009261;28;20759;-71
2024/01/25 10:44:07;;;;;;;13.50;3.00;;;8.20;99.90;;;;;;5008904;28;20648;-71
2024/01/25 10:46:35;;;;;;;8.57;2.70;;;8.20;99.90;;;;;;5009265;28;20218;-71
2024/01/25 10:49:03;;;;;;;10.97;3.07;;;8.20;99.90;;;;;;5009164;28;20880;-71
2024/01/25 10:51:31;;;;;;;12.80;3.03;;;8.20;99.90;;;;;;5009034;28;20300;-71
2024/01/25 10:53:59;;;;;;;13.30;2.97;;;8.20;99.90;;;;;;5008894;28;20660;-71
2024/01/25 10:56:26;;;;;;;12.53;2.80;;;8.20;99.90;;;;;;5008701;28;20209;-71
2024/01/25 10:58:54;;;;;;;6.27;2.30;;;8.20;99.90;;;;;;5008972;28;20308;-71
2024/01/25 11:01:22;;;;;;;9.93;2.83;;;8.30;99.90;;;;;;5008783;28;20750;-72
2024/01/25 11:03:48;;;;;;;13.17;3.10;;;8.20;99.90;;;;;;5009128;28;20244;-71
2024/01/25 11:06:16;;;;;;;9.40;3.00;;;8.20;99.90;;;;;;5008869;28;20346;-71
2024/01/25 11:08:43;;;;;;;10.43;2.87;;;8.30;99.90;;;;;;5008768;28;20217;-71
2024/01/25 11:11:12;;;;;;;11.03;2.97;;;8.30;99.90;;;;;;5009122;28;20206;-71
2024/01/25 11:13:41;;;;;;;10.03;3.50;;;8.30;99.90;;;;;;5009139;28;20320;-71
2024/01/25 11:16:16;;;;;;;11.80;2.47;;;8.30;99.90;;;;;;5008946;28;20212;-71
2024/01/25 11:18:50;;;;;;;12.87;2.47;;;8.30;99.90;;;;;;5008263;28;20715;-71
2024/01/25 11:21:28;;;;;;;13.07;2.77;;;8.30;99.90;;;;;;5008426;28;20218;-71
2024/01/25 11:24:02;;;;;;;10.83;2.73;;;8.30;99.90;;;;;;5008443;28;20221;-71
2024/01/25 11:26:29;;;;;;;10.97;3.23;;;8.30;99.90;;;;;;5008981;28;20208;-71
2024/01/25 11:28:59;;;;;;;8.53;2.57;;;8.30;99.90;;;;;;5008494;28;20210;-71
2024/01/25 11:31:28;;;;;;;9.60;2.90;;;8.40;99.90;;;;;;5008608;28;20547;-71
2024/01/25 11:33:58;;;;;;;7.37;2.47;;;8.40;99.90;;;;;;5008268;28;20217;-71
2024/01/25 11:36:25;;;;;;;10.37;2.70;;;8.40;99.90;;;;;;5008344;28;20276;-71
2024/01/25 11:38:52;;;;;;;9.17;2.77;;;8.40;99.90;;;;;;5008026;28;20663;-71
2024/01/25 11:41:19;;;;;;;14.80;2.90;;;8.40;99.90;;;;;;5008121;28;20853;-71
2024/01/25 11:43:49;;;;;;;12.93;2.97;;;8.40;99.90;;;;;;5008491;28;20312;-71
2024/01/25 11:46:16;;;;;;;8.10;2.80;;;8.40;99.90;;;;;;5008078;28;20300;-71
2024/01/25 11:48:44;;;;;;;9.90;2.90;;;8.40;99.90;;;;;;5008321;28;20308;-72
2024/01/25 11:51:12;;;;;;;6.20;2.43;;;8.40;99.90;;;;;;5007941;28;20633;-71
2024/01/25 11:53:39;;;;;;;13.17;3.00;;;8.40;99.90;;;;;;5007610;28;20335;-71
2024/01/25 11:56:09;;;;;;;7.03;2.40;;;8.40;99.90;;;;;;5007605;28;20301;-71
2024/01/25 11:58:37;;;;;;;9.90;2.90;;;8.40;99.90;;;;;;4988713;28;20281;-71
2024/01/25 12:01:07;;;;;;;9.03;2.73;;;8.50;99.90;;;;;;4988339;28;20206;-71
2024/01/25 12:03:36;;;;;;;8.37;2.60;;;8.50;99.90;;;;;;4988030;28;20566;-71
2024/01/25 12:06:05;;;;;;;14.43;2.80;;;8.60;99.90;;;;;;4988367;28;20206;-71
2024/01/25 12:08:33;;;;;;;11.33;3.27;;;8.70;99.90;;;;;;4987323;28;20696;-71
2024/01/25 12:11:05;;;;;;;8.03;2.83;;;8.70;99.90;;;;;;4988445;28;20213;-71
2024/01/25 12:13:35;;;;;;;16.87;3.10;;;8.70;99.90;;;;;;4988262;28;20209;-71
2024/01/25 12:16:04;;;;;;;11.20;3.10;;;8.70;99.90;;;;;;4988181;28;20304;-71
2024/01/25 12:18:32;;;;;;;6.83;2.40;;;8.60;99.90;;;;;;4987823;28;20206;-71
2024/01/25 12:21:00;;;;;;;11.10;2.87;;;8.60;99.90;;;;;;5003172;28;20218;-71
2024/01/25 12:23:36;;;;;;;12.13;2.43;;;8.60;99.90;;;;;;5007418;28;20206;-71
2024/01/25 12:26:04;;;;;;;10.27;2.87;;;8.60;99.90;;;;;;5007576;28;20255;-71
2024/01/25 12:28:32;;;;;;;11.50;2.67;;;8.60;99.90;;;;;;5007816;28;20296;-71
2024/01/25 12:30:59;;;;;;;11.40;2.80;;;8.70;99.90;;;;;;5007810;28;20209;-71
2024/01/25 12:33:26;;;;;;;8.20;2.50;;;8.70;99.90;;;;;;5007541;28;20241;-71
2024/01/25 12:35:54;;;;;;;11.27;2.83;;;8.70;99.90;;;;;;5007539;28;20289;-71
2024/01/25 12:38:21;;;;;;;5.63;2.47;;;8.70;99.90;;;;;;5006869;28;20209;-71
2024/01/25 12:40:50;;;;;;;12.43;2.57;;;8.70;99.90;;;;;;5007293;28;20321;-71
2024/01/25 12:43:18;;;;;;;7.57;2.60;;;8.70;99.90;;;;;;5007310;28;20296;-71
2024/01/25 12:45:45;;;;;;;8.53;3.00;;;8.80;99.90;;;;;;5007328;28;20237;-71
2024/01/25 12:48:12;;;;;;;12.77;2.80;;;9.10;99.90;;;;;;5007112;28;20257;-71